Time;durP1;ratioP1;P1;durP2;ratioP2;P2;SDS_P1;SDS_P2;PMS_P1;PMS_P2;Temp;Humidity;BMP_temperature;BMP_pressure;BME280_temperature;BME280_humidity;BME280_pressure;Samples;Min_cycle;Max_cycle;Signal;HPM_P1;HPM_P2
2023/03/31 00:01:00;;;;;;;14.50;6.40;;;;;;;;;;2039146;29;20039;-79
2023/03/31 00:02:21;;;;;;;13.40;6.57;;;;;;;;;;2045145;29;20039;-79
2023/03/31 00:03:42;;;;;;;12.73;5.97;;;;;;;;;;2043218;29;20031;-79
2023/03/31 00:05:03;;;;;;;13.77;6.20;;;;;;;;;;2039268;29;20039;-79
2023/03/31 00:06:27;;;;;;;15.85;7.15;;;;;;;;;;2026818;28;20032;-79
2023/03/31 00:07:51;;;;;;;14.10;6.70;;;;;;;;;;2029980;29;20039;-76
2023/03/31 00:09:17;;;;;;;19.10;6.88;;;;;;;;;;2036531;29;20044;-76
2023/03/31 00:10:44;;;;;;;19.75;8.70;;;;;;;;;;2032775;29;20128;-76
2023/03/31 00:12:05;;;;;;;21.92;7.93;;;;;;;;;;2030535;29;20044;-76
2023/03/31 00:13:26;;;;;;;13.15;5.78;;;;;;;;;;2034809;29;20024;-74
2023/03/31 00:14:47;;;;;;;19.00;7.57;;;;;;;;;;2032344;29;20045;-75
2023/03/31 00:16:08;;;;;;;33.40;10.55;;;;;;;;;;2031273;28;20040;-75
2023/03/31 00:17:32;;;;;;;19.60;6.85;;;;;;;;;;2039438;29;20500;-75
2023/03/31 00:18:54;;;;;;;21.35;7.70;;;;;;;;;;2033386;29;20048;-75
2023/03/31 00:20:16;;;;;;;14.32;6.47;;;;;;;;;;2034332;29;20051;-77
2023/03/31 00:21:41;;;;;;;17.92;6.97;;;;;;;;;;2035516;29;20403;-75
2023/03/31 00:23:05;;;;;;;17.42;7.00;;;;;;;;;;2034891;29;20039;-76
2023/03/31 00:24:31;;;;;;;15.05;6.53;;;;;;;;;;2035973;29;20047;-76
2023/03/31 00:25:53;;;;;;;25.00;7.75;;;;;;;;;;2035738;29;20411;-75
2023/03/31 00:27:14;;;;;;;14.68;6.00;;;;;;;;;;2038749;29;20042;-75
2023/03/31 00:28:35;;;;;;;26.52;7.32;;;;;;;;;;2033165;29;20028;-75
2023/03/31 00:29:56;;;;;;;18.45;6.75;;;;;;;;;;2034111;29;20024;-75
2023/03/31 00:31:17;;;;;;;17.17;7.00;;;;;;;;;;2033012;29;20040;-76
2023/03/31 00:32:38;;;;;;;18.25;6.68;;;;;;;;;;2031699;29;20460;-75
2023/03/31 00:33:59;;;;;;;16.95;6.80;;;;;;;;;;2043985;29;20067;-76
2023/03/31 00:35:20;;;;;;;22.27;7.82;;;;;;;;;;2040251;29;20040;-75
2023/03/31 00:36:46;;;;;;;20.60;7.30;;;;;;;;;;2031965;29;20152;-75
2023/03/31 00:38:13;;;;;;;15.23;6.53;;;;;;;;;;2034771;29;20044;-75
2023/03/31 00:39:35;;;;;;;16.02;6.28;;;;;;;;;;2038632;29;20040;-75
2023/03/31 00:40:57;;;;;;;25.25;7.15;;;;;;;;;;2036540;29;20028;-75
2023/03/31 00:42:18;;;;;;;17.90;6.65;;;;;;;;;;2033869;29;20028;-75
2023/03/31 00:43:41;;;;;;;20.65;7.22;;;;;;;;;;2034675;29;20487;-75
2023/03/31 00:45:13;;;;;;;12.95;6.28;;;;;;;;;;2035113;29;20570;-75
2023/03/31 00:46:55;;;;;;;16.75;6.45;;;;;;;;;;2035588;28;20040;-75
2023/03/31 00:48:17;;;;;;;17.95;6.70;;;;;;;;;;2035057;29;20028;-76
2023/03/31 00:49:44;;;;;;;18.30;7.50;;;;;;;;;;2034444;29;20484;-76
2023/03/31 00:51:06;;;;;;;12.50;5.60;;;;;;;;;;2036595;29;20031;-76
2023/03/31 00:52:31;;;;;;;15.45;5.45;;;;;;;;;;2033159;29;20048;-76
2023/03/31 00:54:07;;;;;;;18.55;6.22;;;;;;;;;;2040094;29;20047;-75
2023/03/31 00:55:40;;;;;;;10.18;4.93;;;;;;;;;;2046783;28;20094;-79
2023/03/31 00:57:05;;;;;;;10.95;5.30;;;;;;;;;;2046825;28;20043;-81
2023/03/31 00:58:32;;;;;;;11.90;5.15;;;;;;;;;;2048711;29;20043;-79
2023/03/31 00:59:57;;;;;;;22.48;6.80;;;;;;;;;;2041774;29;20039;-75
2023/03/31 01:01:23;;;;;;;18.17;6.93;;;;;;;;;;2044547;29;20051;-81
2023/03/31 01:02:50;;;;;;;14.93;6.53;;;;;;;;;;2031321;29;20482;-73
2023/03/31 01:04:11;;;;;;;17.60;6.05;;;;;;;;;;2031364;29;20989;-73
2023/03/31 01:05:35;;;;;;;16.92;6.85;;;;;;;;;;2038515;29;20032;-73
2023/03/31 01:06:59;;;;;;;16.15;6.93;;;;;;;;;;2039379;28;20355;-73
2023/03/31 01:08:23;;;;;;;15.25;6.43;;;;;;;;;;2035150;29;20113;-72
2023/03/31 01:09:46;;;;;;;16.88;7.53;;;;;;;;;;2029954;29;20028;-72
2023/03/31 01:11:08;;;;;;;16.55;6.43;;;;;;;;;;2036261;29;20040;-72
2023/03/31 01:12:31;;;;;;;14.93;6.82;;;;;;;;;;2034767;29;20131;-72
2023/03/31 01:13:54;;;;;;;15.13;6.80;;;;;;;;;;2030075;29;20044;-72
2023/03/31 01:15:16;;;;;;;16.27;6.65;;;;;;;;;;2036736;29;20036;-73
2023/03/31 01:16:38;;;;;;;18.83;7.18;;;;;;;;;;2037689;29;20420;-73
2023/03/31 01:17:59;;;;;;;11.93;6.28;;;;;;;;;;2032204;29;20035;-73
2023/03/31 01:19:41;;;;;;;15.23;6.32;;;;;;;;;;2030009;29;20455;-72
2023/03/31 01:21:22;;;;;;;13.05;6.60;;;;;;;;;;2040083;29;20039;-72
2023/03/31 01:22:46;;;;;;;11.15;6.30;;;;;;;;;;2030585;29;20040;-73
2023/03/31 01:24:19;;;;;;;23.20;7.68;;;;;;;;;;2031562;29;20040;-72
2023/03/31 01:25:41;;;;;;;17.40;7.18;;;;;;;;;;2037661;29;20042;-73
2023/03/31 01:27:20;;;;;;;18.80;5.90;;;;;;;;;;2031372;29;20048;-72
2023/03/31 01:29:00;;;;;;;19.85;6.97;;;;;;;;;;2030486;29;20487;-72
2023/03/31 01:30:40;;;;;;;14.65;6.55;;;;;;;;;;2043300;29;20498;-72
2023/03/31 01:32:16;;;;;;;14.93;6.28;;;;;;;;;;2026261;29;20080;-73
2023/03/31 01:33:46;;;;;;;12.38;6.30;;;;;;;;;;2033175;29;20036;-73
2023/03/31 01:35:32;;;;;;;14.63;6.80;;;;;;;;;;2032060;29;20036;-72
2023/03/31 01:37:13;;;;;;;26.48;8.50;;;;;;;;;;2026758;29;20047;-72
2023/03/31 01:38:46;;;;;;;25.92;7.60;;;;;;;;;;2037639;29;20079;-73
2023/03/31 01:40:08;;;;;;;;;;;;;;;;;;2032590;29;20036;-72
2023/03/31 01:41:29;;;;;;;19.42;7.78;;;;;;;;;;2025449;29;20381;-73
2023/03/31 01:43:02;;;;;;;20.88;7.22;;;;;;;;;;2029458;29;20416;-73
2023/03/31 01:44:41;;;;;;;15.50;6.70;;;;;;;;;;2029859;29;20036;-72
2023/03/31 01:46:05;;;;;;;15.85;7.10;;;;;;;;;;2027550;29;20563;-72
2023/03/31 01:47:30;;;;;;;18.73;7.32;;;;;;;;;;2027355;29;20449;-73
2023/03/31 01:48:57;;;;;;;19.70;7.28;;;;;;;;;;2027207;29;20028;-72
2023/03/31 01:50:34;;;;;;;19.60;7.32;;;;;;;;;;2028051;29;20033;-72
2023/03/31 01:51:59;;;;;;;19.17;7.00;;;;;;;;;;2032155;29;20032;-72
2023/03/31 01:53:27;;;;;;;14.98;7.32;;;;;;;;;;2028076;29;20033;-71
2023/03/31 01:54:54;;;;;;;20.08;6.47;;;;;;;;;;2037416;29;20035;-71
2023/03/31 01:56:18;;;;;;;25.83;9.48;;;;;;;;;;2027167;29;20044;-72
2023/03/31 01:57:42;;;;;;;23.27;8.35;;;;;;;;;;2034049;29;20490;-72
2023/03/31 01:59:09;;;;;;;20.63;8.27;;;;;;;;;;2032320;29;20040;-72
2023/03/31 02:00:32;;;;;;;21.52;7.40;;;;;;;;;;2035162;29;20036;-72
2023/03/31 02:01:59;;;;;;;20.27;7.32;;;;;;;;;;2033441;29;20036;-72
2023/03/31 02:03:21;;;;;;;23.15;7.70;;;;;;;;;;2033840;29;20036;-71
2023/03/31 02:04:42;;;;;;;;;;;;;;;;;;2029762;29;20037;-72
2023/03/31 02:06:11;;;;;;;17.08;6.82;;;;;;;;;;2028528;29;19919;-72
2023/03/31 02:07:37;;;;;;;17.83;7.25;;;;;;;;;;2032047;29;20044;-72
2023/03/31 02:09:03;;;;;;;18.67;7.40;;;;;;;;;;2030817;29;20543;-72
2023/03/31 02:10:26;;;;;;;19.88;7.28;;;;;;;;;;2028554;29;20045;-72
2023/03/31 02:11:47;;;;;;;14.73;6.68;;;;;;;;;;2030520;29;20512;-73
2023/03/31 02:13:10;;;;;;;15.95;6.22;;;;;;;;;;2028770;29;21517;-72
2023/03/31 02:14:31;;;;;;;26.10;7.43;;;;;;;;;;2027358;29;20069;-72
2023/03/31 02:15:56;;;;;;;20.27;6.88;;;;;;;;;;2029650;29;20031;-72
2023/03/31 02:17:21;;;;;;;22.00;7.32;;;;;;;;;;2036004;29;20044;-72
2023/03/31 02:18:42;;;;;;;19.05;6.88;;;;;;;;;;2033554;29;20101;-72
2023/03/31 02:20:06;;;;;;;21.67;7.72;;;;;;;;;;2024382;29;20208;-72
2023/03/31 02:21:28;;;;;;;23.05;8.35;;;;;;;;;;2026751;29;20040;-72
2023/03/31 02:22:49;;;;;;;;;;;;;;;;;;2037053;29;21215;-73
2023/03/31 02:24:11;;;;;;;18.80;7.45;;;;;;;;;;2031252;29;20314;-72
2023/03/31 02:25:35;;;;;;;24.45;8.02;;;;;;;;;;2028384;29;20119;-72
2023/03/31 02:27:02;;;;;;;15.45;6.47;;;;;;;;;;2026627;29;20104;-72
2023/03/31 02:28:25;;;;;;;18.65;7.03;;;;;;;;;;2031919;29;20131;-72
2023/03/31 02:29:46;;;;;;;20.27;7.70;;;;;;;;;;2027018;29;20468;-73
2023/03/31 02:31:07;;;;;;;17.42;7.68;;;;;;;;;;2027601;29;20148;-73
2023/03/31 02:32:33;;;;;;;23.40;8.35;;;;;;;;;;2028903;29;20036;-73
2023/03/31 02:33:54;;;;;;;19.23;7.45;;;;;;;;;;2025910;29;20135;-73
2023/03/31 02:35:16;;;;;;;21.60;7.20;;;;;;;;;;2029239;29;20028;-73
2023/03/31 02:36:37;;;;;;;26.98;8.55;;;;;;;;;;2023491;29;20104;-73
2023/03/31 02:37:58;;;;;;;18.25;6.45;;;;;;;;;;2028023;29;20032;-73
2023/03/31 02:39:22;;;;;;;23.73;8.18;;;;;;;;;;2034390;29;20047;-73
2023/03/31 02:40:43;;;;;;;26.42;8.63;;;;;;;;;;2030514;29;20032;-73
2023/03/31 02:42:06;;;;;;;17.30;6.05;;;;;;;;;;2027601;29;20524;-72
2023/03/31 02:43:27;;;;;;;18.85;7.68;;;;;;;;;;2027027;29;20040;-73
2023/03/31 02:44:48;;;;;;;19.05;7.53;;;;;;;;;;2028335;29;20045;-73
2023/03/31 02:46:09;;;;;;;20.63;6.93;;;;;;;;;;2026570;29;20732;-73
2023/03/31 02:47:30;;;;;;;22.92;8.60;;;;;;;;;;2025529;29;20365;-73
2023/03/31 02:48:54;;;;;;;19.65;6.80;;;;;;;;;;2030542;29;20036;-73
2023/03/31 02:50:14;;;;;;;18.90;6.95;;;;;;;;;;2027746;29;20048;-72
2023/03/31 02:51:54;;;;;;;16.05;7.00;;;;;;;;;;2027588;29;20103;-73
2023/03/31 02:53:21;;;;;;;26.45;7.65;;;;;;;;;;2026286;29;20028;-73
2023/03/31 02:54:45;;;;;;;18.90;7.03;;;;;;;;;;2026811;29;20039;-73
2023/03/31 02:56:18;;;;;;;24.73;6.95;;;;;;;;;;2027291;29;20045;-73
2023/03/31 02:57:45;;;;;;;21.65;8.05;;;;;;;;;;2027604;29;20459;-73
2023/03/31 02:59:26;;;;;;;26.67;8.18;;;;;;;;;;2026886;29;20096;-73
2023/03/31 03:00:53;;;;;;;18.38;7.47;;;;;;;;;;2029968;29;20095;-73
2023/03/31 03:02:14;;;;;;;13.10;6.65;;;;;;;;;;2033235;29;20055;-73
2023/03/31 03:03:53;;;;;;;27.77;8.30;;;;;;;;;;2034493;29;20550;-73
2023/03/31 03:05:33;;;;;;;19.40;7.43;;;;;;;;;;2035863;28;20027;-72
2023/03/31 03:07:02;;;;;;;23.85;9.77;;;;;;;;;;2034275;28;20789;-73
2023/03/31 03:08:26;;;;;;;29.55;9.52;;;;;;;;;;2034487;29;20392;-73
2023/03/31 03:10:03;;;;;;;34.17;8.75;;;;;;;;;;2032956;29;20099;-73
2023/03/31 03:11:26;;;;;;;19.15;7.38;;;;;;;;;;2035008;29;20455;-73
2023/03/31 03:12:49;;;;;;;19.83;7.50;;;;;;;;;;2035920;29;20040;-73
2023/03/31 03:14:16;;;;;;;24.65;8.27;;;;;;;;;;2028457;29;20127;-73
2023/03/31 03:15:46;;;;;;;25.45;8.77;;;;;;;;;;2035243;29;20035;-73
2023/03/31 03:17:09;;;;;;;24.30;7.63;;;;;;;;;;2033867;29;20032;-73
2023/03/31 03:18:30;;;;;;;19.48;7.72;;;;;;;;;;2039039;29;20040;-73
2023/03/31 03:19:55;;;;;;;23.23;9.32;;;;;;;;;;2034742;29;20036;-73
2023/03/31 03:21:16;;;;;;;27.15;8.38;;;;;;;;;;2035743;29;20028;-73
2023/03/31 03:22:38;;;;;;;22.52;7.93;;;;;;;;;;2029342;29;20036;-73
2023/03/31 03:24:00;;;;;;;22.55;7.22;;;;;;;;;;2028010;29;20040;-73
2023/03/31 03:25:23;;;;;;;18.75;6.95;;;;;;;;;;2036047;29;20039;-72
2023/03/31 03:26:44;;;;;;;25.52;9.00;;;;;;;;;;2033726;28;20035;-73
2023/03/31 03:28:06;;;;;;;21.23;8.15;;;;;;;;;;2034963;29;20427;-73
2023/03/31 03:29:26;;;;;;;21.48;7.53;;;;;;;;;;2030910;29;20039;-73
2023/03/31 03:30:47;;;;;;;15.73;6.63;;;;;;;;;;2032399;29;20144;-71
2023/03/31 03:32:09;;;;;;;18.45;7.18;;;;;;;;;;2035490;29;20024;-73
2023/03/31 03:33:30;;;;;;;20.80;6.65;;;;;;;;;;2039027;29;20223;-73
2023/03/31 03:34:51;;;;;;;20.92;7.20;;;;;;;;;;2038491;29;20043;-73
2023/03/31 03:36:12;;;;;;;22.02;7.70;;;;;;;;;;2036792;29;20348;-73
2023/03/31 03:37:33;;;;;;;28.20;7.70;;;;;;;;;;2032768;29;20040;-74
2023/03/31 03:38:54;;;;;;;15.65;7.00;;;;;;;;;;2036668;29;20035;-73
2023/03/31 03:40:15;;;;;;;23.35;7.47;;;;;;;;;;2041660;29;20039;-73
2023/03/31 03:41:36;;;;;;;24.08;8.05;;;;;;;;;;2038744;29;20095;-73
2023/03/31 03:42:57;;;;;;;18.42;7.05;;;;;;;;;;2037653;29;20036;-73
2023/03/31 03:44:18;;;;;;;25.27;8.63;;;;;;;;;;2036062;29;20499;-73
2023/03/31 03:45:39;;;;;;;25.75;7.43;;;;;;;;;;2039794;29;20063;-73
2023/03/31 03:47:00;;;;;;;17.75;7.18;;;;;;;;;;2038972;29;20337;-73
2023/03/31 03:48:21;;;;;;;16.95;6.78;;;;;;;;;;2040177;28;20103;-73
2023/03/31 03:49:42;;;;;;;22.23;8.57;;;;;;;;;;2027657;29;20032;-73
2023/03/31 03:51:03;;;;;;;21.75;8.45;;;;;;;;;;2026771;29;20399;-73
2023/03/31 03:52:24;;;;;;;29.83;8.27;;;;;;;;;;2030676;29;20491;-73
2023/03/31 03:53:45;;;;;;;22.67;8.85;;;;;;;;;;2032346;29;20044;-73
2023/03/31 03:55:06;;;;;;;15.93;7.57;;;;;;;;;;2036656;29;20036;-73
2023/03/31 03:56:27;;;;;;;21.23;8.27;;;;;;;;;;2024535;29;20500;-73
2023/03/31 03:57:47;;;;;;;23.10;7.72;;;;;;;;;;2030437;29;20052;-73
2023/03/31 03:59:09;;;;;;;20.00;8.10;;;;;;;;;;2035740;29;20039;-74
2023/03/31 04:00:30;;;;;;;16.55;6.50;;;;;;;;;;2039585;29;20106;-73
2023/03/31 04:01:51;;;;;;;23.63;7.35;;;;;;;;;;2039474;29;20031;-73
2023/03/31 04:03:12;;;;;;;18.38;7.30;;;;;;;;;;2036093;29;20036;-73
2023/03/31 04:04:33;;;;;;;14.25;6.97;;;;;;;;;;2037126;29;20039;-74
2023/03/31 04:05:54;;;;;;;19.00;7.82;;;;;;;;;;2037169;29;20542;-73
2023/03/31 04:07:16;;;;;;;29.55;8.23;;;;;;;;;;2036116;29;20041;-73
2023/03/31 04:08:37;;;;;;;20.15;6.65;;;;;;;;;;2037452;29;20055;-74
2023/03/31 04:09:58;;;;;;;17.25;7.28;;;;;;;;;;2038399;29;20443;-74
2023/03/31 04:11:19;;;;;;;17.20;8.15;;;;;;;;;;2037142;29;20040;-72
2023/03/31 04:12:39;;;;;;;16.15;7.85;;;;;;;;;;2036757;29;20443;-73
2023/03/31 04:14:00;;;;;;;25.05;8.45;;;;;;;;;;2033654;29;20063;-73
2023/03/31 04:15:21;;;;;;;16.08;7.20;;;;;;;;;;2036864;29;20068;-74
2023/03/31 04:16:45;;;;;;;28.65;8.95;;;;;;;;;;2033255;29;20342;-73
2023/03/31 04:18:09;;;;;;;13.18;7.15;;;;;;;;;;2038172;29;20094;-74
2023/03/31 04:19:30;;;;;;;16.83;7.05;;;;;;;;;;2036386;29;20035;-74
2023/03/31 04:21:02;;;;;;;22.95;7.68;;;;;;;;;;2036608;29;20031;-74
2023/03/31 04:22:27;;;;;;;;;;;;;;;;;;2035709;29;20082;-74
2023/03/31 04:23:49;;;;;;;19.98;7.60;;;;;;;;;;2038637;29;19922;-74
2023/03/31 04:25:16;;;;;;;22.73;8.75;;;;;;;;;;2032730;29;20298;-73
2023/03/31 04:26:43;;;;;;;22.33;8.05;;;;;;;;;;2035250;29;20344;-73
2023/03/31 04:28:05;;;;;;;16.75;7.25;;;;;;;;;;2034976;29;21656;-73
2023/03/31 04:29:26;;;;;;;17.33;7.32;;;;;;;;;;2035279;29;20028;-73
2023/03/31 04:30:47;;;;;;;20.38;7.47;;;;;;;;;;2035741;29;20435;-73
2023/03/31 04:32:08;;;;;;;16.95;7.35;;;;;;;;;;2024258;29;20054;-74
2023/03/31 04:33:29;;;;;;;17.35;6.78;;;;;;;;;;2032827;29;20063;-74
2023/03/31 04:34:50;;;;;;;17.85;7.32;;;;;;;;;;2037951;29;20486;-74
2023/03/31 04:36:17;;;;;;;22.65;8.68;;;;;;;;;;2033142;29;20058;-74
2023/03/31 04:37:38;;;;;;;17.92;7.22;;;;;;;;;;2034909;29;20040;-74
2023/03/31 04:39:00;;;;;;;19.20;7.03;;;;;;;;;;2036360;29;20088;-74
2023/03/31 04:40:20;;;;;;;13.52;6.80;;;;;;;;;;2027697;29;20044;-74
2023/03/31 04:41:41;;;;;;;20.70;7.90;;;;;;;;;;2030883;29;20064;-74
2023/03/31 04:43:02;;;;;;;18.02;7.38;;;;;;;;;;2037327;29;20455;-74
2023/03/31 04:44:23;;;;;;;20.30;7.78;;;;;;;;;;2037800;29;20058;-74
2023/03/31 04:45:44;;;;;;;18.00;7.20;;;;;;;;;;2035527;29;20035;-74
2023/03/31 04:47:05;;;;;;;21.60;7.18;;;;;;;;;;2033130;29;20032;-74
2023/03/31 04:48:26;;;;;;;12.18;6.63;;;;;;;;;;2034736;29;20040;-74
2023/03/31 04:49:47;;;;;;;19.65;8.25;;;;;;;;;;2035813;29;20032;-74
2023/03/31 04:51:09;;;;;;;20.73;8.13;;;;;;;;;;2036002;29;20482;-73
2023/03/31 04:52:30;;;;;;;25.80;8.85;;;;;;;;;;2034413;29;20368;-74
2023/03/31 04:53:51;;;;;;;18.45;7.60;;;;;;;;;;2039317;29;20086;-74
2023/03/31 04:55:11;;;;;;;25.45;8.80;;;;;;;;;;2034201;29;20091;-74
2023/03/31 04:56:33;;;;;;;21.02;8.02;;;;;;;;;;2030361;29;20515;-74
2023/03/31 04:57:53;;;;;;;18.20;7.00;;;;;;;;;;2034203;29;20549;-74
2023/03/31 04:59:14;;;;;;;18.00;7.18;;;;;;;;;;2034770;29;20024;-74
2023/03/31 05:00:35;;;;;;;12.20;6.40;;;;;;;;;;2030311;29;20032;-74
2023/03/31 05:01:56;;;;;;;19.10;6.47;;;;;;;;;;2036645;29;20036;-74
2023/03/31 05:03:17;;;;;;;14.13;6.75;;;;;;;;;;2037286;29;20419;-74
2023/03/31 05:04:38;;;;;;;20.00;7.15;;;;;;;;;;2036632;29;20589;-74
2023/03/31 05:05:59;;;;;;;14.43;7.18;;;;;;;;;;2038147;28;20035;-74
2023/03/31 05:07:20;;;;;;;12.43;6.63;;;;;;;;;;2036166;28;20028;-74
2023/03/31 05:08:41;;;;;;;18.02;7.50;;;;;;;;;;2039035;29;20024;-74
2023/03/31 05:10:02;;;;;;;16.75;6.80;;;;;;;;;;2040053;29;20027;-74
2023/03/31 05:11:23;;;;;;;13.73;6.70;;;;;;;;;;2045190;29;20412;-74
2023/03/31 05:12:44;;;;;;;16.30;6.43;;;;;;;;;;2041451;29;20047;-74
2023/03/31 05:14:05;;;;;;;18.90;7.47;;;;;;;;;;2038024;29;20479;-74
2023/03/31 05:15:26;;;;;;;14.80;5.65;;;;;;;;;;2041112;29;20036;-74
2023/03/31 05:16:47;;;;;;;19.42;7.88;;;;;;;;;;2033202;29;20036;-74
2023/03/31 05:18:07;;;;;;;16.83;6.82;;;;;;;;;;2038845;29;20111;-74
2023/03/31 05:19:28;;;;;;;14.65;7.32;;;;;;;;;;2031778;29;20037;-74
2023/03/31 05:20:49;;;;;;;17.98;6.47;;;;;;;;;;2037541;29;20429;-74
2023/03/31 05:22:10;;;;;;;25.10;7.45;;;;;;;;;;2039745;29;20156;-73
2023/03/31 05:23:31;;;;;;;12.20;6.35;;;;;;;;;;2039608;29;20040;-74
2023/03/31 05:24:52;;;;;;;18.17;7.43;;;;;;;;;;2031598;29;20040;-74
2023/03/31 05:26:13;;;;;;;16.33;7.03;;;;;;;;;;2035507;29;20333;-74
2023/03/31 05:27:35;;;;;;;14.63;6.72;;;;;;;;;;2031773;29;20032;-74
2023/03/31 05:28:55;;;;;;;16.25;6.53;;;;;;;;;;2036403;29;20067;-74
2023/03/31 05:30:16;;;;;;;16.83;8.43;;;;;;;;;;2038792;29;20026;-74
2023/03/31 05:31:37;;;;;;;16.17;6.70;;;;;;;;;;2039903;29;20059;-74
2023/03/31 05:32:58;;;;;;;12.88;6.90;;;;;;;;;;2038836;29;20032;-74
2023/03/31 05:34:19;;;;;;;21.20;7.80;;;;;;;;;;2036146;29;20032;-74
2023/03/31 05:35:40;;;;;;;13.63;6.90;;;;;;;;;;2037893;29;20083;-74
2023/03/31 05:37:01;;;;;;;16.30;7.03;;;;;;;;;;2033292;29;20068;-74
2023/03/31 05:38:22;;;;;;;10.23;6.03;;;;;;;;;;2031924;29;20052;-74
2023/03/31 05:39:43;;;;;;;13.80;7.18;;;;;;;;;;2035857;29;20020;-74
2023/03/31 05:41:05;;;;;;;11.18;5.78;;;;;;;;;;2035956;29;20036;-73
2023/03/31 05:42:26;;;;;;;17.17;7.38;;;;;;;;;;2036785;29;20083;-74
2023/03/31 05:43:47;;;;;;;14.55;6.88;;;;;;;;;;2035690;29;20503;-74
2023/03/31 05:45:08;;;;;;;13.32;6.28;;;;;;;;;;2038434;29;20040;-73
2023/03/31 05:46:29;;;;;;;17.55;6.82;;;;;;;;;;2035274;29;20066;-73
2023/03/31 05:47:50;;;;;;;18.60;8.15;;;;;;;;;;2037266;28;20050;-73
2023/03/31 05:49:11;;;;;;;15.27;6.57;;;;;;;;;;2029079;29;20037;-74
2023/03/31 05:50:32;;;;;;;10.73;6.22;;;;;;;;;;2036122;29;20487;-74
2023/03/31 05:51:52;;;;;;;10.48;6.22;;;;;;;;;;2037338;29;20059;-74
2023/03/31 05:53:13;;;;;;;14.35;6.32;;;;;;;;;;2039744;29;20087;-74
2023/03/31 05:54:34;;;;;;;15.02;7.10;;;;;;;;;;2039503;29;20491;-74
2023/03/31 05:55:59;;;;;;;15.00;7.53;;;;;;;;;;2029991;29;20135;-73
2023/03/31 05:57:19;;;;;;;15.13;7.07;;;;;;;;;;2036697;28;20024;-74
2023/03/31 05:58:40;;;;;;;15.00;7.00;;;;;;;;;;2041078;29;20035;-74
2023/03/31 06:00:02;;;;;;;13.38;6.28;;;;;;;;;;2040049;29;20031;-73
2023/03/31 06:01:23;;;;;;;12.48;5.60;;;;;;;;;;2040976;29;20027;-74
2023/03/31 06:02:44;;;;;;;17.00;7.47;;;;;;;;;;2029553;29;20040;-73
2023/03/31 06:04:05;;;;;;;16.27;6.93;;;;;;;;;;2026140;29;20044;-74
2023/03/31 06:05:26;;;;;;;12.75;6.43;;;;;;;;;;2035779;29;20031;-74
2023/03/31 06:06:49;;;;;;;12.88;6.10;;;;;;;;;;2038655;29;20032;-74
2023/03/31 06:08:10;;;;;;;14.13;6.78;;;;;;;;;;2038983;28;20043;-74
2023/03/31 06:09:31;;;;;;;13.65;6.72;;;;;;;;;;2039210;29;20031;-74
2023/03/31 06:10:52;;;;;;;11.07;6.53;;;;;;;;;;2036159;29;20491;-73
2023/03/31 06:12:13;;;;;;;14.65;6.43;;;;;;;;;;2038729;29;20036;-74
2023/03/31 06:13:34;;;;;;;15.18;7.35;;;;;;;;;;2035500;29;20051;-73
2023/03/31 06:14:55;;;;;;;15.52;6.82;;;;;;;;;;2039661;29;20024;-74
2023/03/31 06:16:16;;;;;;;14.90;6.53;;;;;;;;;;2032766;29;20028;-74
2023/03/31 06:17:37;;;;;;;17.08;7.38;;;;;;;;;;2035180;29;20101;-74
2023/03/31 06:18:58;;;;;;;12.93;6.55;;;;;;;;;;2038010;29;20538;-73
2023/03/31 06:20:19;;;;;;;16.08;6.90;;;;;;;;;;2044278;29;20039;-75
2023/03/31 06:21:40;;;;;;;11.73;6.40;;;;;;;;;;2038014;29;20028;-74
2023/03/31 06:23:01;;;;;;;16.77;6.90;;;;;;;;;;2038863;29;20035;-73
2023/03/31 06:24:21;;;;;;;13.23;6.75;;;;;;;;;;2040302;29;20044;-74
2023/03/31 06:25:42;;;;;;;16.60;7.00;;;;;;;;;;2040082;29;20146;-74
2023/03/31 06:27:05;;;;;;;12.23;6.80;;;;;;;;;;2040066;29;20035;-74
2023/03/31 06:28:25;;;;;;;;;;;;;;;;;;2040459;29;20048;-76
2023/03/31 06:29:46;;;;;;;13.00;6.57;;;;;;;;;;2037099;29;19907;-74
2023/03/31 06:31:08;;;;;;;17.95;7.43;;;;;;;;;;2039710;29;20557;-75
2023/03/31 06:32:29;;;;;;;23.77;7.70;;;;;;;;;;2039068;29;20024;-77
2023/03/31 06:33:50;;;;;;;15.63;7.80;;;;;;;;;;2034968;29;20039;-77
2023/03/31 06:35:11;;;;;;;13.50;7.25;;;;;;;;;;2036559;29;20036;-77
2023/03/31 06:36:32;;;;;;;16.08;6.78;;;;;;;;;;2037510;29;20550;-77
2023/03/31 06:37:53;;;;;;;19.42;7.35;;;;;;;;;;2034059;29;20402;-78
2023/03/31 06:39:14;;;;;;;16.92;7.05;;;;;;;;;;2037627;29;20033;-78
2023/03/31 06:40:35;;;;;;;12.50;6.57;;;;;;;;;;2040437;29;20039;-77
2023/03/31 06:41:56;;;;;;;17.08;7.10;;;;;;;;;;2033118;29;20031;-78
2023/03/31 06:43:17;;;;;;;15.27;7.65;;;;;;;;;;2030879;29;20032;-74
2023/03/31 06:44:38;;;;;;;17.48;7.93;;;;;;;;;;2031183;29;20768;-77
2023/03/31 06:45:59;;;;;;;12.48;6.07;;;;;;;;;;2030857;29;20119;-81
2023/03/31 06:47:20;;;;;;;11.32;6.38;;;;;;;;;;2038314;29;20031;-78
2023/03/31 06:48:41;;;;;;;17.55;6.88;;;;;;;;;;2040361;29;20155;-78
2023/03/31 06:50:02;;;;;;;19.30;7.38;;;;;;;;;;2038993;29;20031;-78
2023/03/31 06:51:23;;;;;;;13.20;7.07;;;;;;;;;;2041228;29;20035;-78
2023/03/31 06:52:44;;;;;;;13.63;6.85;;;;;;;;;;2040675;29;20028;-78
2023/03/31 06:54:05;;;;;;;16.13;7.25;;;;;;;;;;2040577;29;20031;-77
2023/03/31 06:55:26;;;;;;;15.25;6.80;;;;;;;;;;2044724;29;20031;-75
2023/03/31 06:56:47;;;;;;;14.25;6.55;;;;;;;;;;2034353;29;20036;-76
2023/03/31 06:58:08;;;;;;;14.90;7.50;;;;;;;;;;2043115;28;20032;-76
2023/03/31 06:59:29;;;;;;;11.20;6.63;;;;;;;;;;2039267;29;20578;-75
2023/03/31 07:00:50;;;;;;;13.73;6.10;;;;;;;;;;2041460;29;20035;-79
2023/03/31 07:02:11;;;;;;;16.08;7.38;;;;;;;;;;2034898;29;20040;-76
2023/03/31 07:03:32;;;;;;;11.82;6.30;;;;;;;;;;2035953;29;20036;-72
2023/03/31 07:04:53;;;;;;;7.37;4.93;;;;;;;;;;2037330;29;20087;-74
2023/03/31 07:06:14;;;;;;;13.25;6.45;;;;;;;;;;2040585;29;20442;-82
2023/03/31 07:07:35;;;;;;;13.27;5.80;;;;;;;;;;2036988;29;20042;-84
2023/03/31 07:08:56;;;;;;;13.55;6.78;;;;;;;;;;2029144;29;20056;-83
2023/03/31 07:10:16;;;;;;;14.68;6.13;;;;;;;;;;2032759;29;20080;-83
2023/03/31 07:11:37;;;;;;;12.60;6.43;;;;;;;;;;2040471;29;20547;-80
2023/03/31 07:13:00;;;;;;;10.77;6.55;;;;;;;;;;2028831;29;20036;-85
2023/03/31 07:14:21;;;;;;;12.43;6.28;;;;;;;;;;2035142;29;20079;-80
2023/03/31 07:15:42;;;;;;;13.07;7.00;;;;;;;;;;2029863;29;20044;-79
2023/03/31 07:17:03;;;;;;;19.73;7.28;;;;;;;;;;2038429;29;20035;-77
2023/03/31 07:18:31;;;;;;;14.88;7.53;;;;;;;;;;2033780;29;20094;-78
2023/03/31 07:19:51;;;;;;;17.08;8.23;;;;;;;;;;2034398;29;20096;-79
2023/03/31 07:21:12;;;;;;;12.88;7.57;;;;;;;;;;2039014;29;20098;-79
2023/03/31 07:22:33;;;;;;;18.55;7.75;;;;;;;;;;2030364;29;20503;-76
2023/03/31 07:23:54;;;;;;;13.93;6.70;;;;;;;;;;2032779;29;20051;-76
2023/03/31 07:25:16;;;;;;;14.73;7.20;;;;;;;;;;2038931;29;20483;-77
2023/03/31 07:26:37;;;;;;;10.63;6.30;;;;;;;;;;2039655;29;20040;-74
2023/03/31 07:27:58;;;;;;;17.25;8.60;;;;;;;;;;2032751;29;20438;-76
2023/03/31 07:29:19;;;;;;;13.25;6.85;;;;;;;;;;2035712;29;20031;-74
2023/03/31 07:30:40;;;;;;;9.30;5.88;;;;;;;;;;2040790;29;20031;-80
2023/03/31 07:32:01;;;;;;;11.55;5.85;;;;;;;;;;2034693;29;20036;-79
2023/03/31 07:33:22;;;;;;;10.35;6.55;;;;;;;;;;2035707;29;20035;-75
2023/03/31 07:34:42;;;;;;;10.10;6.60;;;;;;;;;;2033632;29;20048;-75
2023/03/31 07:36:04;;;;;;;15.23;7.53;;;;;;;;;;2037092;29;20044;-75
2023/03/31 07:37:25;;;;;;;15.07;6.57;;;;;;;;;;2039198;29;20401;-75
2023/03/31 07:38:48;;;;;;;15.30;8.00;;;;;;;;;;2034142;29;20054;-75
2023/03/31 07:40:08;;;;;;;;;;;;;;;;;;2037161;29;20062;-76
2023/03/31 07:41:29;;;;;;;12.95;6.40;;;;;;;;;;2036228;29;19915;-76
2023/03/31 07:42:51;;;;;;;23.20;7.88;;;;;;;;;;2032402;29;20035;-77
2023/03/31 07:44:12;;;;;;;18.30;8.18;;;;;;;;;;2037092;29;20252;-80
2023/03/31 07:45:33;;;;;;;14.80;7.15;;;;;;;;;;2037583;29;20023;-79
2023/03/31 07:46:54;;;;;;;20.08;7.72;;;;;;;;;;2029122;29;20060;-79
2023/03/31 07:48:15;;;;;;;20.00;7.82;;;;;;;;;;2035311;28;20035;-78
2023/03/31 07:49:36;;;;;;;17.77;8.05;;;;;;;;;;2035251;29;20036;-77
2023/03/31 07:50:57;;;;;;;12.60;6.22;;;;;;;;;;2038587;29;20142;-83
2023/03/31 07:52:18;;;;;;;13.18;5.85;;;;;;;;;;2039359;29;20031;-75
2023/03/31 07:53:39;;;;;;;11.85;6.10;;;;;;;;;;2042172;29;20487;-73
2023/03/31 07:55:00;;;;;;;9.93;6.40;;;;;;;;;;2032016;29;20036;-72
2023/03/31 07:56:22;;;;;;;12.68;5.30;;;;;;;;;;2033149;29;20560;-72
2023/03/31 07:57:44;;;;;;;15.95;7.18;;;;;;;;;;2036045;29;20028;-73
2023/03/31 07:59:06;;;;;;;18.83;6.78;;;;;;;;;;2039930;29;20467;-73
2023/03/31 08:00:26;;;;;;;12.48;5.93;;;;;;;;;;2034130;29;20032;-73
2023/03/31 08:01:47;;;;;;;23.80;7.35;;;;;;;;;;2025409;29;20051;-75
2023/03/31 08:03:08;;;;;;;16.52;6.32;;;;;;;;;;2022795;29;20797;-74
2023/03/31 08:04:29;;;;;;;12.25;5.57;;;;;;;;;;2032022;29;20056;-74
2023/03/31 08:05:51;;;;;;;12.55;6.03;;;;;;;;;;2043605;29;20032;-74
2023/03/31 08:07:12;;;;;;;16.20;6.13;;;;;;;;;;2047842;29;20376;-74
2023/03/31 08:08:33;;;;;;;15.13;5.65;;;;;;;;;;2047801;28;20036;-76
2023/03/31 08:09:54;;;;;;;14.32;5.82;;;;;;;;;;2038364;29;20456;-77
2023/03/31 08:11:15;;;;;;;14.00;5.57;;;;;;;;;;2033517;29;20484;-79